Latest Coastal Weather Observations for Evans Head

IDN60701

Issued at 1:11 am EDT Monday 5 December 2016 (issued every 10 minutes, with the page automatically refreshed every 10 minutes)

About coastal observations | Map of coastal stations | Coastal observations for NSW | Marine services | Other Formats
Station Details ID: 058212 Name: EVANS HEAD RAAF BOMBING RANGE AWS Lat: -29.18 Lon: 153.40 Height: 62.5 m
Data from the previous 72 hours. | See also: Recent months at Evans Head
Date/Time
EDT
Temp
°C
Wind Pressure Rain since
9am
mm
Weather Cloud Vis
km
Sea
Height
m
Swell
Dir  Spd
kts
Gust
kts
hPa Trend Height
m
Period
s
Dir
05/01:00am 20.8 N 6 8 1013.5 - 0.0 - - - - - - -
05/12:30am 21.0 N 5 7 1014.0 - 0.0 - - - - - - -
05/12:00am 21.0 N 7 9 1014.1 - 0.0 - - - - - - -
 
Date/Time
EDT
Temp
°C
Wind Pressure Rain since
9am
mm
Weather Cloud Vis
km
Sea
Height
m
Swell
Dir  Spd
kts
Gust
kts
hPa Trend Height
m
Period
s
Dir
04/11:30pm 21.0 N 7 8 1014.2 - 0.0 - - - - - - -
04/11:00pm 21.1 N 7 9 1014.2 - 0.0 - - - - - - -
04/10:30pm 21.3 N 7 8 1014.1 - 0.0 - - - - - - -
04/10:00pm 21.5 N 6 8 1013.8 - 0.0 - - - - - - -
04/09:30pm 21.7 N 4 6 1013.6 - 0.0 - - - - - - -
04/09:00pm 22.1 N 5 7 1013.3 - 0.0 - - - - - - -
04/08:30pm 22.7 NNE 8 10 1013.1 - 0.0 - - - - - - -
04/08:00pm 23.2 N 7 11 1012.9 - 0.0 - - - - - - -
04/07:30pm 23.6 N 10 15 1012.5 - 0.0 - - - - - - -
04/07:00pm 24.2 NNE 10 15 1012.2 - 0.0 - - - - - - -
04/06:30pm 25.4 NNE 10 16 1012.1 - 0.0 - - - - - - -
04/06:00pm 26.7 N 9 12 1011.9 - 0.0 - - - - - - -
04/05:30pm 28.1 N 8 12 1011.9 - 0.0 - - - - - - -
04/05:00pm 29.0 NNE 10 16 1011.8 - 0.0 - - - - - - -
04/04:30pm 29.1 NNE 11 16 1012.0 - 0.0 - - - - - - -
04/04:00pm 30.6 NNE 10 15 1012.1 - 0.0 - - - - - - -
04/03:30pm 30.6 NNE 9 16 1012.2 - 0.0 - - - - - - -
04/03:00pm 30.6 N 8 13 1012.5 - 0.0 - - - - - - -
04/02:30pm 30.9 NNE 8 13 1012.7 - 0.0 - - - - - - -
04/02:00pm 30.4 E 8 11 1013.1 - 0.0 - - - - - - -
04/01:30pm 28.0 ESE 7 13 1013.7 - 0.0 - - - - - - -
04/01:00pm 26.0 E 8 12 1014.2 - 0.0 - - - - - - -
04/12:30pm 26.4 ESE 9 11 1014.7 - 0.0 - - - - - - -
04/12:00pm 24.4 ESE 8 10 1015.1 - 0.0 - - - - - - -
04/11:30am 26.5 E 9 13 1015.0 - 0.0 - - - - - - -
04/11:00am 27.5 ENE 8 10 1015.3 - 0.0 - - - - - - -
04/10:30am 27.2 ESE 5 7 1015.5 - 0.0 - - - - - - -
04/10:00am 27.0 SE 5 7 1015.6 - 0.0 - - - - - - -
04/09:30am 26.2 ESE 4 7 1015.4 - 0.0 - - - - - - -
04/09:00am 26.4 NE 2 6 1015.5 - 1.6 - - - - - - -
04/08:30am 24.7 N 5 7 1015.5 - 1.6 - - - - - - -
04/08:00am 23.3 N 5 6 1015.4 - 1.6 - - - - - - -
04/07:30am 22.3 N 4 5 1014.8 - 1.6 - - - - - - -
04/07:00am 21.8 NNW 3 4 1014.7 - 1.6 - - - - - - -
04/06:30am 21.2 CALM 0 0 1014.6 - 1.6 - - - - - - -
04/06:00am 20.2 N 3 5 1014.5 - 1.6 - - - - - - -
04/05:30am 20.2 CALM 0 0 1014.4 - 1.6 - - - - - - -
04/05:00am 20.4 CALM 0 0 1014.5 - 1.6 - - - - - - -
04/04:30am 20.0 CALM 0 0 1014.6 - 1.6 - - - - - - -
04/04:00am 20.0 SSW 3 4 1014.5 - 1.6 - - - - - - -
04/03:30am 20.0 SSW 4 5 1014.6 - 1.6 - - - - - - -
04/03:00am 19.6 S 5 8 1014.5 - 1.4 - - - - - - -
04/02:30am 19.5 S 5 7 1014.6 - 1.4 - - - - - - -
04/02:00am 20.0 S 5 8 1014.7 - 1.4 - - - - - - -
04/01:30am 19.9 S 8 9 1014.8 - 1.4 - - - - - - -
04/01:00am 20.5 SSW 8 11 1014.8 - 1.4 - - - - - - -
04/12:30am 20.5 SW 8 11 1015.3 - 1.4 - - - - - - -
04/12:00am 20.4 SW 7 10 1015.7 - 1.4 - - - - - - -
 
Date/Time
EDT
Temp
°C
Wind Pressure Rain since
9am
mm
Weather Cloud Vis
km
Sea
Height
m
Swell
Dir  Spd
kts
Gust
kts
hPa Trend Height
m
Period
s
Dir
03/11:30pm 20.0 S 7 10 1015.6 - 1.4 - - - - - - -
03/11:00pm 19.9 S 9 11 1015.6 - 1.4 - - - - - - -
03/10:30pm 20.6 SW 6 11 1015.2 - 1.4 - - - - - - -
03/10:00pm 20.5 WSW 5 9 1014.5 - 1.4 - - - - - - -
03/09:30pm 20.9 NNW 7 13 1014.1 - 1.4 - - - - - - -
03/09:00pm 21.2 NNW 9 15 1014.1 - 1.4 Recent precip. - - - - - -
03/08:53pm 21.3 NNW 9 13 1014.2 - 1.4 - - - - - - -
03/08:30pm 21.8 WNW 8 12 1016.2 - 1.2 - - - - - - -
03/08:23pm 21.3 NNW 8 12 1015.7 - 1.2 - - - - - - -
03/08:00pm 21.1 N 9 13 1013.6 - 1.2 - - - - - - -
03/07:30pm 21.6 N 12 19 1012.4 - 1.2 - - - - - - -
03/07:00pm 22.1 NNE 8 14 1013.4 - 1.2 - - - - - - -
03/06:30pm 22.1 E 8 13 1014.1 - 1.2 - - - - - - -
03/06:00pm 22.0 SW 4 6 1015.0 - 0.4 - - - - - - -
03/05:49pm 22.0 WSW 3 10 1014.5 - 0.4 - - - - - - -
03/05:30pm 22.1 S 12 16 1012.4 - 0.4 - - - - - - -
03/05:09pm 22.7 NW 13 27 1012.6 - 0.4 - - - - - - -
03/05:06pm 22.3 NNW 11 22 1012.1 - 0.4 - - - - - - -
03/05:00pm 22.1 N 12 19 1009.7 - 0.4 - - - - - - -
03/04:30pm 22.7 N 11 17 1011.0 - 0.2 - - - - - - -
03/04:00pm 24.0 N 13 23 1009.8 - 0.0 - - - - - - -
03/03:30pm 25.8 NNE 9 15 1009.5 - 0.0 - - - - - - -
03/03:00pm 30.2 NNE 14 20 1010.2 - 0.0 - - - - - - -
03/02:30pm 31.9 NNE 11 21 1010.7 - 0.0 - - - - - - -
03/02:00pm 33.2 NNE 11 17 1011.3 - 0.0 - - - - - - -
03/01:30pm 32.4 NNE 12 18 1011.7 - 0.0 - - - - - - -
03/01:00pm 33.1 NNE 10 16 1012.2 - 0.0 - - - - - - -
03/12:30pm 31.7 NNE 9 16 1012.4 - 0.0 - - - - - - -
03/12:00pm 32.7 NE 9 16 1012.6 - 0.0 - - - - - - -
03/11:30am 33.0 NNE 5 8 1013.1 - 0.0 - - - - - - -
03/11:00am 32.8 N 8 13 1013.4 - 0.0 - - - - - - -
03/10:30am 31.5 N 7 11 1014.0 - 0.0 - - - - - - -
03/10:00am 29.1 NNW 7 13 1014.1 - 0.0 - - - - - - -
03/09:30am 28.8 NNW 8 13 1014.1 - 0.0 - - - - - - -
03/09:00am 26.6 N 10 15 1013.8 - 0.0 - - - - - - -
03/08:30am 25.2 NNW 10 15 1013.8 - 0.0 - - - - - - -
03/08:00am 23.5 NNW 8 11 1014.0 - 0.0 - - - - - - -
03/07:30am 22.7 N 5 8 1013.6 - 0.0 - - - - - - -
03/07:00am 21.8 NNW 5 7 1013.6 - 0.0 - - - - - - -
03/06:30am 20.3 NNW 6 7 1013.1 - 0.0 - - - - - - -
03/06:00am 19.2 CALM 0 0 1013.0 - 0.0 - - - - - - -
03/05:30am 19.2 NNW 4 5 1012.6 - 0.0 - - - - - - -
03/05:00am 19.2 NNW 6 7 1012.1 - 0.0 - - - - - - -
03/04:30am 19.6 N 6 7 1011.7 - 0.0 - - - - - - -
03/04:00am 19.6 N 6 7 1011.7 - 0.0 - - - - - - -
03/03:30am 19.4 N 6 7 1011.3 - 0.0 - - - - - - -
03/03:00am 19.8 N 5 7 1011.7 - 0.0 - - - - - - -
03/02:30am 19.6 NNW 5 7 1012.1 - 0.0 - - - - - - -
03/02:00am 20.1 N 4 5 1012.4 - 0.0 - - - - - - -
03/01:30am 20.4 NE 5 6 1012.3 - 0.0 - - - - - - -
03/01:00am 21.0 NNE 4 5 1012.7 - 0.0 - - - - - - -
03/12:30am 20.9 NNW 6 7 1012.8 - 0.0 - - - - - - -
03/12:00am 20.5 NNW 5 7 1012.7 - 0.0 - - - - - - -
 
Date/Time
EDT
Temp
°C
Wind Pressure Rain since
9am
mm
Weather Cloud Vis
km
Sea
Height
m
Swell
Dir  Spd
kts
Gust
kts
hPa Trend Height
m
Period
s
Dir
02/11:30pm 20.7 N 7 10 1012.4 - 0.0 - - - - - - -
02/11:00pm 20.7 N 8 12 1012.0 - 0.0 - - - - - - -
02/10:30pm 20.9 N 6 8 1012.0 - 0.0 - - - - - - -
02/10:00pm 21.0 N 7 9 1011.9 - 0.0 - - - - - - -
02/09:30pm 21.2 NNE 9 12 1011.4 - 0.0 - - - - - - -
02/09:00pm 21.6 N 10 15 1010.8 - 0.0 - - - - - - -
02/08:30pm 22.0 N 9 13 1010.5 - 0.0 - - - - - - -
02/08:00pm 22.5 N 12 17 1009.9 - 0.0 - - - - - - -
02/07:30pm 22.9 N 11 17 1009.6 - 0.0 - - - - - - -
02/07:00pm 23.4 N 13 18 1009.0 - 0.0 - - - - - - -
02/06:30pm 24.6 N 10 14 1008.7 - 0.0 - - - - - - -
02/06:00pm 26.2 N 11 18 1008.3 - 0.0 - - - - - - -
02/05:30pm 27.9 NNE 10 17 1008.1 - 0.0 - - - - - - -
02/05:00pm 27.5 NNE 12 19 1007.9 - 0.0 - - - - - - -
02/04:30pm 27.7 NNE 14 19 1007.8 - 0.0 - - - - - - -
02/04:00pm 29.1 NNE 13 22 1007.7 - 0.0 - - - - - - -
02/03:30pm 29.4 NNE 13 19 1007.9 - 0.0 - - - - - - -
02/03:00pm 30.7 NNE 14 21 1008.1 - 0.0 - - - - - - -
02/02:30pm 30.7 NNE 13 18 1008.5 - 0.0 - - - - - - -
02/02:00pm 30.9 NNE 13 19 1008.6 - 0.0 - - - - - - -
02/01:30pm 30.2 NNE 12 18 1008.7 - 0.0 - - - - - - -
02/01:00pm 32.0 NNE 11 16 1008.9 - 0.0 - - - - - - -
02/12:30pm 31.0 NNE 12 18 1009.1 - 0.0 - - - - - - -
02/12:00pm 31.3 NE 9 15 1009.5 - 0.0 - - - - - - -
02/11:30am 29.7 NE 10 16 1009.6 - 0.0 - - - - - - -
02/11:00am 30.0 NNE 7 12 1010.1 - 0.0 - - - - - - -
02/10:30am 29.6 NNE 7 10 1010.2 - 0.0 - - - - - - -
02/10:00am 29.8 N 6 11 1010.4 - 0.0 - - - - - - -
02/09:30am 28.5 N 7 11 1010.6 - 0.0 - - - - - - -
02/09:00am 27.0 N 7 10 1010.7 - 4.0 - - - - - - -
02/08:30am 25.6 NNW 6 8 1010.6 - 4.0 - - - - - - -
02/08:00am 24.1 N 5 8 1010.6 - 4.0 - - - - - - -
02/07:30am 22.2 N 5 7 1010.5 - 4.0 - - - - - - -
02/07:00am 20.6 N 6 8 1010.3 - 4.0 - - - - - - -
02/06:30am 19.6 N 5 6 1010.2 - 4.0 - - - - - - -
02/06:00am 19.0 N 5 6 1009.9 - 4.0 Recent precip. - - - - - -
02/05:30am 18.8 N 5 7 1009.5 - 4.0 - - - - - - -
02/05:00am 18.9 N 6 7 1009.3 - 3.8 - - - - - - -
02/04:30am 18.8 N 5 7 1009.1 - 3.8 - - - - - - -
02/04:00am 18.5 N 6 8 1009.0 - 3.8 - - - - - - -
02/03:30am 19.0 NNE 5 6 1008.9 - 3.8 - - - - - - -
02/03:00am 18.9 NNE 5 7 1009.0 - 3.8 - - - - - - -
02/02:30am 19.6 NNE 5 5 1009.1 - 3.8 - - - - - - -
02/02:00am 19.7 NNE 3 4 1009.2 - 3.8 - - - - - - -
02/01:30am 19.4 N 4 5 1009.4 - 3.8 - - - - - - -

Other Formats:

Comma delimited format used in spreadsheet applications
http://www.bom.gov.au/fwo/IDN60701/IDN60701.94598.axf

JavaScript Object Notation format (JSON) in row-major order
http://www.bom.gov.au/fwo/IDN60701/IDN60701.94598.json